createdAt,value
2018-06-28T02:23:39.327Z,99.99
2018-06-28T02:24:39.318Z,99.99
2018-06-28T02:26:32.262Z,99.99
2018-06-28T02:27:32.259Z,99.99
2018-06-28T02:29:25.167Z,99.99
2018-06-28T02:30:25.177Z,99.99
2018-06-28T02:32:18.122Z,99.99
2018-06-28T02:33:18.110Z,99.99
2018-06-28T02:35:11.032Z,99.99
2018-06-28T02:36:11.052Z,99.99
2018-06-28T02:38:03.985Z,99.99
2018-06-28T02:39:03.980Z,99.99
2018-06-28T02:40:56.921Z,99.99
2018-06-28T02:41:56.912Z,99.99
2018-06-28T02:43:49.832Z,99.99
2018-06-28T02:44:49.852Z,99.99
2018-06-28T02:46:42.794Z,99.99
2018-06-28T02:47:42.789Z,99.99
2018-06-28T02:49:35.714Z,99.99
2018-06-28T02:50:35.724Z,99.99
2018-06-28T02:52:28.676Z,99.99
2018-06-28T02:53:28.664Z,99.99
2018-06-28T02:55:21.589Z,99.99
2018-06-28T02:56:21.611Z,99.99
2018-06-28T02:58:14.558Z,99.99
2018-06-28T02:59:14.555Z,99.99
2018-06-28T03:01:07.489Z,99.99
2018-06-28T03:02:07.485Z,99.99
2018-06-28T03:04:00.410Z,99.99
2018-06-28T03:05:00.423Z,99.99
2018-06-28T03:06:53.380Z,99.99
2018-06-28T03:07:53.369Z,99.99
2018-06-28T03:09:46.295Z,99.99
2018-06-28T03:10:46.307Z,99.99
2018-06-28T03:12:39.251Z,99.99
2018-06-28T03:13:39.256Z,99.99
2018-06-28T03:15:32.175Z,99.99
2018-06-28T03:16:32.189Z,99.99
2018-06-28T03:18:25.136Z,99.99
2018-06-28T03:19:25.134Z,99.99
2018-06-28T03:21:18.078Z,99.99
2018-06-28T03:22:18.080Z,99.99
2018-06-28T03:24:10.999Z,99.99
2018-06-28T03:25:11.013Z,99.99
2018-06-28T03:27:03.960Z,99.99
2018-06-28T03:28:03.953Z,99.99
2018-06-28T03:29:56.880Z,99.99
2018-06-28T03:30:56.901Z,99.99
2018-06-28T03:32:49.840Z,99.99
2018-06-28T03:33:49.838Z,99.99
2018-06-28T03:35:42.765Z,99.99
2018-06-28T03:36:42.786Z,99.99
2018-06-28T03:38:35.728Z,99.99
2018-06-28T03:39:35.722Z,99.99
2018-06-28T03:41:28.671Z,99.99
2018-06-28T03:42:28.664Z,99.99
2018-06-28T03:44:21.588Z,99.99
2018-06-28T03:45:21.601Z,99.99
2018-06-28T03:47:14.551Z,99.99
2018-06-28T03:48:14.545Z,99.99
2018-06-28T03:50:07.478Z,99.99
2018-06-28T03:51:07.488Z,99.99
2018-06-28T03:53:00.434Z,99.99
2018-06-28T03:54:00.432Z,99.99
2018-06-28T03:55:53.358Z,99.99
2018-06-28T03:56:53.372Z,99.99
2018-06-28T03:58:46.323Z,99.99
2018-06-28T03:59:46.317Z,99.99
2018-06-28T04:01:39.266Z,99.99
2018-06-28T04:02:39.258Z,99.99
2018-06-28T04:04:32.190Z,99.99
2018-06-28T04:05:32.203Z,99.99
2018-06-28T04:07:25.150Z,99.99
2018-06-28T04:08:25.143Z,99.99
2018-06-28T04:10:18.066Z,99.99
2018-06-28T04:11:18.084Z,99.99
2018-06-28T04:13:11.032Z,99.99
2018-06-28T04:14:11.026Z,99.99
2018-06-28T04:16:03.957Z,99.99
2018-06-28T04:17:03.968Z,99.99
2018-06-28T04:18:56.914Z,99.99
2018-06-28T04:19:56.910Z,99.99
2018-06-28T04:21:49.861Z,99.99
2018-06-28T04:22:49.849Z,99.99
2018-06-28T04:24:42.783Z,99.99
2018-06-28T04:25:42.804Z,99.99
2018-06-28T04:27:35.743Z,99.99
2018-06-28T04:28:35.736Z,99.99
2018-06-28T04:30:28.664Z,99.99
2018-06-28T04:31:28.679Z,99.99
2018-06-28T04:33:21.703Z,99.99
2018-06-28T04:34:21.624Z,99.99
2018-06-28T04:36:14.555Z,99.99
2018-06-28T04:37:14.572Z,99.99
2018-06-28T04:39:07.519Z,99.99
2018-06-28T04:40:07.515Z,99.99
2018-06-28T04:42:00.465Z,99.99
2018-06-28T04:43:00.457Z,99.99
2018-06-28T04:44:53.385Z,99.99
2018-06-28T04:45:53.400Z,99.99
2018-06-28T04:47:46.352Z,99.99
2018-06-28T04:48:46.345Z,99.99
2018-06-28T04:50:39.271Z,99.99
2018-06-28T04:51:39.284Z,99.99
2018-06-28T04:53:32.227Z,99.99
2018-06-28T04:54:32.221Z,99.99
2018-06-28T04:56:25.156Z,99.99
2018-06-28T04:57:25.167Z,99.99
2018-06-28T04:59:18.116Z,99.99
2018-06-28T05:00:18.106Z,99.99
2018-06-28T05:02:11.058Z,99.99
2018-06-28T05:03:11.053Z,99.99
2018-06-28T05:05:03.978Z,99.99
2018-06-28T05:06:03.993Z,99.99
2018-06-28T05:07:56.940Z,99.99
2018-06-28T05:08:56.941Z,99.99
2018-06-28T05:10:49.862Z,99.99
2018-06-28T05:11:49.875Z,99.99
2018-06-28T05:13:42.825Z,99.99
2018-06-28T05:14:42.819Z,99.99
2018-06-28T05:16:35.745Z,99.99
2018-06-28T05:17:35.761Z,99.99
2018-06-28T05:19:28.708Z,99.99
2018-06-28T05:20:28.717Z,99.99
2018-06-28T05:22:21.649Z,99.99
2018-06-28T05:23:21.675Z,99.99
2018-06-28T05:25:15.090Z,99.99
2018-06-28T05:26:15.087Z,99.99
2018-06-28T05:28:08.036Z,84.48
2018-06-28T05:29:08.093Z,75.75
2018-06-28T05:31:00.958Z,65.20
2018-06-28T05:32:00.981Z,62.95
2018-06-28T05:33:53.937Z,59.41
2018-06-28T05:34:53.959Z,58.64
2018-06-28T05:36:46.862Z,55.68
2018-06-28T05:37:46.875Z,55.10
2018-06-28T05:39:39.839Z,55.46
2018-06-28T05:40:39.845Z,55.55
2018-06-28T05:42:32.798Z,56.01
2018-06-28T05:43:32.801Z,57.67
2018-06-28T05:45:25.751Z,56.36
2018-06-28T05:46:25.767Z,55.19
2018-06-28T05:48:18.732Z,54.35
2018-06-28T05:49:18.730Z,53.77
2018-06-28T05:51:11.675Z,53.30
2018-06-28T05:52:11.700Z,52.58
2018-06-28T05:54:04.664Z,50.99
2018-06-28T05:55:04.667Z,51.26
2018-06-28T05:56:57.624Z,54.10
2018-06-28T05:57:57.639Z,55.04
2018-06-28T05:59:50.607Z,54.64
2018-06-28T06:00:50.608Z,53.42
2018-06-28T06:02:43.581Z,51.12
2018-06-28T06:03:43.584Z,49.99
2018-06-28T06:05:36.524Z,49.68
2018-06-28T06:06:36.583Z,49.24
2018-06-28T06:08:29.602Z,48.68
2018-06-28T06:09:29.605Z,51.09
2018-06-28T06:11:22.638Z,52.59
2018-06-28T06:12:22.674Z,52.21
2018-06-28T06:14:15.729Z,53.38
2018-06-28T06:15:15.721Z,52.82
2018-06-28T06:17:08.666Z,52.87
2018-06-28T06:18:08.690Z,51.07
2018-06-28T06:20:01.695Z,48.71
2018-06-28T06:21:01.685Z,48.46
2018-06-28T06:22:54.652Z,50.02
2018-06-28T06:23:54.647Z,48.00
2018-06-28T06:25:47.595Z,46.21
2018-06-28T06:26:47.619Z,45.45
2018-06-28T06:28:40.586Z,42.48
2018-06-28T06:29:40.723Z,42.50
2018-06-28T06:31:33.547Z,41.25
2018-06-28T06:32:33.580Z,41.64
2018-06-28T06:34:27.123Z,42.95
2018-06-28T06:35:27.058Z,42.41
2018-06-28T06:37:20.018Z,42.25
2018-06-28T06:38:20.038Z,41.17
2018-06-28T06:40:13.021Z,40.00
2018-06-28T06:41:13.015Z,41.82
2018-06-28T06:43:06.064Z,43.20
2018-06-28T06:44:06.070Z,45.36
2018-06-28T06:45:59.106Z,44.55
2018-06-28T06:46:59.134Z,44.14
2018-06-28T06:48:52.181Z,46.61
2018-06-28T06:49:52.182Z,47.97
2018-06-28T06:51:45.255Z,47.51
2018-06-28T06:52:45.244Z,46.73
2018-06-28T06:54:38.292Z,45.65
2018-06-28T06:55:38.294Z,44.96
2018-06-28T06:57:31.360Z,43.34
2018-06-28T06:58:31.351Z,42.50
2018-06-28T07:00:24.400Z,42.29
2018-06-28T07:01:24.517Z,42.46
2018-06-28T07:03:17.458Z,42.91
2018-06-28T07:04:17.460Z,44.80
2018-06-28T07:06:10.498Z,47.73
2018-06-28T07:07:10.584Z,46.58
2018-06-28T07:09:03.566Z,44.87
2018-06-28T07:10:03.593Z,44.20
2018-06-28T07:11:56.603Z,42.29
2018-06-28T07:12:56.660Z,42.21
2018-06-28T07:14:49.673Z,42.36
2018-06-28T07:15:49.739Z,43.81
2018-06-28T07:17:42.720Z,42.29
2018-06-28T07:18:42.751Z,41.23
2018-06-28T07:20:35.793Z,41.97
2018-06-28T07:21:35.810Z,44.16
2018-06-28T07:23:28.856Z,44.51
2018-06-28T07:24:28.849Z,44.31
2018-06-28T07:26:22.387Z,45.07
2018-06-28T07:27:22.412Z,46.80
2018-06-28T07:29:15.471Z,46.92
2018-06-28T07:30:15.471Z,47.22
2018-06-28T07:32:08.498Z,47.22
2018-06-28T07:33:08.623Z,47.51
2018-06-28T07:35:01.619Z,46.92
2018-06-28T07:36:01.589Z,45.70
2018-06-28T07:37:54.659Z,44.84
2018-06-28T07:38:54.635Z,44.04
2018-06-28T07:40:47.686Z,47.12
2018-06-28T07:41:47.691Z,46.56
2018-06-28T07:43:40.754Z,43.79
2018-06-28T07:44:40.783Z,42.54
2018-06-28T07:46:33.799Z,41.39
2018-06-28T07:47:33.804Z,41.21
2018-06-28T07:49:26.775Z,40.45
2018-06-28T07:50:26.777Z,40.92
2018-06-28T07:52:19.729Z,41.49
2018-06-28T07:53:19.758Z,42.42
2018-06-28T07:55:12.727Z,43.59
2018-06-28T07:56:12.734Z,43.49
2018-06-28T07:58:05.683Z,42.77
2018-06-28T07:59:05.734Z,43.68
2018-06-28T08:00:58.810Z,46.49
2018-06-28T08:01:58.710Z,47.29
2018-06-28T08:03:51.665Z,45.25
2018-06-28T08:04:51.656Z,44.02
2018-06-28T08:06:44.608Z,43.67
2018-06-28T08:07:44.655Z,43.95
2018-06-28T08:09:37.644Z,45.07
2018-06-28T08:10:37.661Z,45.92
2018-06-28T08:12:30.659Z,47.95
2018-06-28T08:13:30.683Z,46.88
2018-06-28T08:15:23.748Z,47.09
2018-06-28T08:16:23.741Z,46.41
2018-06-28T08:18:16.776Z,47.53
2018-06-28T08:19:16.888Z,47.36
2018-06-28T08:21:09.849Z,46.90
2018-06-28T08:22:09.889Z,46.02
2018-06-28T08:24:02.929Z,43.95
2018-06-28T08:25:02.949Z,46.47
2018-06-28T08:26:55.963Z,46.86
2018-06-28T08:27:55.964Z,47.22
2018-06-28T08:29:49.028Z,45.10
2018-06-28T08:30:49.018Z,45.12
2018-06-28T08:32:42.045Z,42.80
2018-06-28T08:33:42.079Z,43.19
2018-06-28T08:35:35.128Z,42.34
2018-06-28T08:36:35.178Z,42.93
2018-06-28T08:38:28.157Z,43.88
2018-06-28T08:39:28.187Z,43.00
2018-06-28T08:41:21.240Z,43.22
2018-06-28T08:42:21.238Z,42.10
2018-06-28T08:44:14.303Z,45.64
2018-06-28T08:45:14.290Z,45.32
2018-06-28T08:47:07.358Z,46.15
2018-06-28T08:48:07.376Z,46.15
2018-06-28T08:50:00.400Z,48.13
2018-06-28T08:51:00.406Z,46.98
2018-06-28T08:52:53.436Z,46.78
2018-06-28T08:53:53.456Z,46.88
2018-06-28T08:55:46.518Z,44.38
2018-06-28T08:56:46.520Z,44.01
2018-06-28T08:58:39.562Z,45.15
2018-06-28T08:59:39.571Z,44.67
2018-06-28T09:01:32.625Z,45.42
2018-06-28T09:02:32.621Z,44.96
2018-06-28T09:04:25.615Z,46.32
2018-06-28T09:05:25.593Z,46.98
2018-06-28T09:07:18.567Z,47.00
2018-06-28T09:08:18.558Z,46.03
2018-06-28T09:10:11.524Z,44.28
2018-06-28T09:11:11.525Z,45.54
2018-06-28T09:13:04.475Z,46.13
2018-06-28T09:14:04.500Z,44.48
2018-06-28T09:15:57.457Z,45.18
2018-06-28T09:16:57.453Z,42.47
2018-06-28T09:18:50.396Z,43.11
2018-06-28T09:19:50.418Z,44.26
2018-06-28T09:21:43.382Z,46.40
2018-06-28T09:22:43.455Z,47.08
2018-06-28T09:24:36.349Z,45.42
2018-06-28T09:25:36.349Z,45.01
2018-06-28T09:27:29.534Z,45.09
2018-06-28T09:28:29.329Z,46.45
2018-06-28T09:30:22.294Z,45.87
2018-06-28T09:31:22.286Z,45.97
2018-06-28T09:33:15.226Z,46.74
2018-06-28T09:34:15.246Z,48.10
2018-06-28T09:36:08.214Z,46.55
2018-06-28T09:37:08.207Z,46.94
2018-06-28T09:39:01.153Z,45.57
2018-06-28T09:40:01.170Z,46.37
2018-06-28T09:41:54.136Z,45.14
2018-06-28T09:42:54.140Z,45.23
2018-06-28T09:44:47.085Z,45.81
2018-06-28T09:45:47.105Z,45.35
2018-06-28T09:47:40.072Z,45.28
2018-06-28T09:48:40.140Z,43.04
2018-06-28T09:50:33.032Z,45.45
2018-06-28T09:51:33.040Z,44.86
2018-06-28T09:53:25.975Z,44.65
2018-06-28T09:54:25.995Z,45.31
2018-06-28T09:56:18.955Z,45.98
2018-06-28T09:57:18.982Z,46.47
2018-06-28T09:59:11.898Z,46.86
2018-06-28T10:00:11.981Z,45.79
2018-06-28T10:02:05.375Z,47.54
2018-06-28T10:03:05.380Z,47.17
2018-06-28T10:04:58.328Z,45.21
2018-06-28T10:05:58.333Z,46.08
2018-06-28T10:07:51.293Z,44.51
2018-06-28T10:08:51.293Z,45.38
2018-06-28T10:10:44.258Z,46.15
2018-06-28T10:11:44.255Z,44.99
2018-06-28T10:13:37.195Z,46.67
2018-06-28T10:14:37.233Z,45.69
2018-06-28T10:16:30.176Z,46.86
2018-06-28T10:17:30.175Z,46.01
2018-06-28T10:19:23.115Z,44.43
2018-06-28T10:20:23.139Z,46.18
2018-06-28T10:22:16.102Z,44.94
2018-06-28T10:23:16.099Z,45.23
2018-06-28T10:25:09.120Z,44.06
2018-06-28T10:26:09.061Z,45.98
2018-06-28T10:28:02.022Z,45.81
2018-06-28T10:29:02.023Z,46.57
2018-06-28T10:30:54.987Z,46.20
2018-06-28T10:31:54.996Z,45.60
2018-06-28T10:33:47.944Z,48.13
2018-06-28T10:34:47.947Z,47.08
2018-06-28T10:36:40.902Z,45.52
2018-06-28T10:37:40.905Z,47.08
2018-06-28T10:39:33.858Z,45.84
2018-06-28T10:40:33.867Z,44.96
2018-06-28T10:42:26.821Z,42.84
2018-06-28T10:43:26.820Z,44.30
2018-06-28T10:45:19.760Z,43.70
2018-06-28T10:46:19.785Z,44.09
2018-06-28T10:48:12.776Z,44.16
2018-06-28T10:49:12.812Z,44.45
2018-06-28T10:51:05.769Z,46.40
2018-06-28T10:52:05.727Z,44.26
2018-06-28T10:53:58.683Z,43.87
2018-06-28T10:54:58.700Z,44.06
2018-06-28T10:56:51.706Z,45.35
2018-06-28T10:57:51.713Z,44.09
2018-06-28T10:59:44.583Z,44.48
2018-06-28T11:00:44.642Z,45.15
2018-06-28T11:02:37.601Z,45.72
2018-06-28T11:03:37.588Z,45.94
2018-06-28T11:05:30.512Z,44.96
2018-06-28T11:06:30.533Z,45.76
2018-06-28T11:08:23.568Z,45.64
2018-06-28T11:09:23.495Z,45.15
2018-06-28T11:11:16.467Z,44.38
2018-06-28T11:12:16.461Z,45.28
2018-06-28T11:14:09.401Z,45.76
2018-06-28T11:15:09.424Z,44.98
2018-06-28T11:17:02.381Z,43.25
2018-06-28T11:18:02.387Z,43.15
2018-06-28T11:19:55.324Z,42.30
2018-06-28T11:20:55.345Z,40.86
2018-06-28T11:22:48.308Z,41.91
2018-06-28T11:23:48.307Z,41.35
2018-06-28T11:25:41.249Z,42.32
2018-06-28T11:26:41.326Z,42.32
2018-06-28T11:28:34.233Z,42.90
2018-06-28T11:29:34.241Z,43.39
2018-06-28T11:31:27.205Z,41.35
2018-06-28T11:32:27.207Z,42.12
2018-06-28T11:34:20.148Z,41.36
2018-06-28T11:35:20.171Z,42.22
2018-06-28T11:37:13.137Z,42.71
2018-06-28T11:38:13.130Z,42.79
2018-06-28T11:40:06.076Z,43.79
2018-06-28T11:41:06.109Z,42.91
2018-06-28T11:42:59.060Z,44.74
2018-06-28T11:43:59.067Z,45.23
2018-06-28T11:45:52.009Z,45.64
2018-06-28T11:46:52.029Z,44.45
2018-06-28T11:48:44.991Z,45.94
2018-06-28T11:49:45.314Z,43.96
2018-06-28T11:51:37.956Z,44.38
2018-06-28T11:52:37.951Z,44.79
2018-06-28T11:54:30.891Z,43.84
2018-06-28T11:55:30.920Z,42.69
2018-06-28T11:57:23.876Z,42.12
2018-06-28T11:58:23.874Z,40.27
2018-06-28T12:00:16.819Z,41.35
2018-06-28T12:01:16.841Z,41.25
2018-06-28T12:03:09.799Z,42.86
2018-06-28T12:04:09.801Z,43.47
2018-06-28T12:06:02.748Z,42.32
2018-06-28T12:07:02.764Z,43.00
2018-06-28T12:08:55.728Z,41.83
2018-06-28T12:09:55.767Z,42.40
2018-06-28T12:11:48.696Z,42.25
2018-06-28T12:12:48.694Z,43.99
2018-06-28T12:14:41.635Z,44.18
2018-06-28T12:15:41.655Z,43.01
2018-06-28T12:17:34.619Z,43.33
2018-06-28T12:18:34.621Z,44.10
2018-06-28T12:20:27.553Z,42.74
2018-06-28T12:21:27.580Z,42.91
2018-06-28T12:23:20.540Z,43.21
2018-06-28T12:24:20.544Z,42.84
2018-06-28T12:26:13.483Z,45.28
2018-06-28T12:27:13.519Z,45.29
2018-06-28T12:29:06.474Z,41.99
2018-06-28T12:30:06.476Z,42.47
2018-06-28T12:31:59.460Z,41.30
2018-06-28T12:32:59.456Z,42.49
2018-06-28T12:34:52.408Z,42.79
2018-06-28T12:35:52.422Z,41.05
2018-06-28T12:37:45.390Z,40.09
2018-06-28T12:38:45.389Z,39.41
2018-06-28T12:40:38.334Z,40.99
2018-06-28T12:41:38.354Z,39.43
2018-06-28T12:43:31.315Z,40.48
2018-06-28T12:44:31.313Z,41.83
2018-06-28T12:46:24.272Z,42.57
2018-06-28T12:47:24.281Z,44.32
2018-06-28T12:49:17.245Z,41.71
2018-06-28T12:50:17.245Z,41.30
2018-06-28T12:52:10.210Z,42.76
2018-06-28T12:53:10.212Z,42.30
2018-06-28T12:55:03.153Z,43.47
2018-06-28T12:56:03.176Z,40.27
2018-06-28T12:57:56.131Z,40.47
2018-06-28T12:58:56.135Z,41.27
2018-06-28T13:00:49.077Z,39.80
2018-06-28T13:01:49.100Z,40.70
2018-06-28T13:03:42.074Z,38.75
2018-06-28T13:04:42.092Z,39.82
2018-06-28T13:06:35.093Z,38.77
2018-06-28T13:07:35.103Z,37.70
2018-06-28T13:09:28.000Z,38.84
2018-06-28T13:10:27.998Z,37.87
2018-06-28T13:12:20.964Z,40.21
2018-06-28T13:13:20.963Z,39.53
2018-06-28T13:15:13.912Z,40.21
2018-06-28T13:16:13.927Z,41.28
2018-06-28T13:18:06.921Z,38.75
2018-06-28T13:19:06.936Z,39.70
2018-06-28T13:20:59.835Z,39.51
2018-06-28T13:21:59.862Z,39.80
2018-06-28T13:23:52.825Z,40.97
2018-06-28T13:24:52.828Z,40.86
2018-06-28T13:26:45.776Z,40.39
2018-06-28T13:27:45.791Z,39.80
2018-06-28T13:29:38.755Z,41.56
2018-06-28T13:30:38.785Z,40.70
2018-06-28T13:32:31.726Z,40.80
2018-06-28T13:33:31.726Z,37.87
2018-06-28T13:35:24.733Z,38.26
2018-06-28T13:36:24.692Z,38.55
2018-06-28T13:38:17.655Z,36.70
2018-06-28T13:39:17.710Z,38.26
2018-06-28T13:41:10.714Z,38.65
2018-06-28T13:42:10.742Z,39.14
2018-06-28T13:44:03.606Z,39.61
2018-06-28T13:45:03.591Z,40.31
2018-06-28T13:46:56.533Z,39.90
2018-06-28T13:47:56.556Z,39.61
2018-06-28T13:49:49.520Z,39.51
2018-06-28T13:50:49.521Z,39.80
2018-06-28T13:52:42.489Z,37.95
2018-06-28T13:53:42.487Z,38.92
2018-06-28T13:55:35.455Z,37.17
2018-06-28T13:56:35.462Z,38.14
2018-06-28T13:58:28.429Z,38.14
2018-06-28T13:59:28.424Z,37.17
2018-06-28T14:01:21.371Z,38.82
2018-06-28T14:02:21.393Z,37.37
2018-06-28T14:04:14.374Z,38.63
2018-06-28T14:05:14.354Z,38.24
2018-06-28T14:07:07.297Z,36.96
2018-06-28T14:08:07.317Z,36.86
2018-06-28T14:10:00.286Z,38.42
2018-06-28T14:11:00.285Z,39.69
2018-06-28T14:12:53.251Z,38.53
2018-06-28T14:13:53.252Z,39.51
2018-06-28T14:15:46.196Z,38.92
2018-06-28T14:16:46.217Z,39.41
2018-06-28T14:18:39.177Z,38.38
2018-06-28T14:19:39.180Z,40.50
2018-06-28T14:21:32.124Z,39.55
2018-06-28T14:22:32.144Z,39.75
2018-06-28T14:24:25.109Z,39.28
2018-06-28T14:25:25.106Z,39.47
2018-06-28T14:27:18.045Z,38.32
2018-06-28T14:28:18.079Z,38.12
2018-06-28T14:30:11.047Z,37.25
2018-06-28T14:31:11.033Z,37.46
2018-06-28T14:33:03.992Z,39.49
2018-06-28T14:34:04.045Z,38.71
2018-06-28T14:35:56.937Z,39.88
2018-06-28T14:36:56.969Z,38.42
2018-06-28T14:38:49.925Z,40.27
2018-06-28T14:39:49.925Z,40.16
2018-06-28T14:41:42.898Z,38.22
2018-06-28T14:42:42.903Z,38.02
2018-06-28T14:44:35.857Z,39.41
2018-06-28T14:45:35.861Z,39.49
2018-06-28T14:47:28.838Z,36.96
2018-06-28T14:48:28.828Z,36.86
2018-06-28T14:50:21.795Z,39.00
2018-06-28T14:51:21.813Z,38.22
2018-06-28T14:53:14.806Z,39.10
2018-06-28T14:54:14.753Z,38.24
2018-06-28T14:56:07.700Z,38.14
2018-06-28T14:57:07.718Z,38.14
2018-06-28T14:59:00.685Z,37.07
2018-06-28T15:00:00.683Z,37.55
2018-06-28T15:01:53.626Z,38.34
2018-06-28T15:02:53.649Z,37.85
2018-06-28T15:04:46.617Z,38.61
2018-06-28T15:05:46.617Z,38.22
2018-06-28T15:07:39.555Z,38.30
2018-06-28T15:08:39.576Z,37.33
2018-06-28T15:10:32.539Z,38.77
2018-06-28T15:11:32.550Z,38.57
2018-06-28T15:13:25.505Z,38.77
2018-06-28T15:14:25.509Z,39.57
2018-06-28T15:16:18.455Z,39.36
2018-06-28T15:17:18.470Z,38.79
2018-06-28T15:19:11.440Z,38.01
2018-06-28T15:20:11.437Z,38.40
2018-06-28T15:22:04.383Z,38.90
2018-06-28T15:23:04.404Z,38.81
2018-06-28T15:24:57.364Z,39.39
2018-06-28T15:25:57.368Z,39.51
2018-06-28T15:27:50.351Z,37.95
2018-06-28T15:28:50.330Z,38.32
2018-06-28T15:30:43.296Z,37.27
2018-06-28T15:31:43.292Z,36.66
2018-06-28T15:33:36.253Z,37.71
2018-06-28T15:34:36.256Z,37.81
2018-06-28T15:36:29.194Z,39.36
2018-06-28T15:37:29.218Z,39.84
2018-06-28T15:39:22.193Z,38.75
2018-06-28T15:40:22.179Z,39.84
2018-06-28T15:42:15.121Z,39.75
2018-06-28T15:43:15.137Z,39.55
2018-06-28T15:45:08.097Z,41.01
2018-06-28T15:46:08.099Z,40.81
2018-06-28T15:48:01.046Z,40.72
2018-06-28T15:49:01.063Z,40.99
2018-06-28T15:50:54.049Z,40.89
2018-06-28T15:51:54.030Z,41.48
2018-06-28T15:53:46.994Z,40.60
2018-06-28T15:54:46.989Z,40.41
2018-06-28T15:56:39.932Z,40.89
2018-06-28T15:57:39.950Z,40.91
2018-06-28T15:59:32.909Z,40.72
2018-06-28T16:00:32.908Z,41.20
2018-06-28T16:02:25.854Z,40.42
2018-06-28T16:03:25.873Z,41.01
2018-06-28T16:05:18.839Z,40.23
2018-06-28T16:06:18.838Z,40.03
2018-06-28T16:08:11.776Z,42.06
2018-06-28T16:09:11.797Z,41.96
2018-06-28T16:11:04.799Z,43.01
2018-06-28T16:12:04.763Z,43.21
2018-06-28T16:13:57.725Z,43.09
2018-06-28T16:14:57.725Z,43.11
2018-06-28T16:16:50.663Z,43.96
2018-06-28T16:17:50.686Z,43.96
2018-06-28T16:19:43.659Z,42.41
2018-06-28T16:20:43.648Z,42.60
2018-06-28T16:22:36.597Z,42.68
2018-06-28T16:23:36.615Z,42.02
2018-06-28T16:25:29.578Z,42.50
2018-06-28T16:26:29.577Z,42.50
2018-06-28T16:28:22.518Z,41.55
2018-06-28T16:29:22.535Z,41.75
2018-06-28T16:31:15.500Z,43.01
2018-06-28T16:32:15.500Z,42.63
2018-06-28T16:34:08.473Z,42.80
2018-06-28T16:35:08.469Z,42.70
2018-06-28T16:37:01.409Z,43.09
2018-06-28T16:38:01.433Z,42.80
2018-06-28T16:39:54.391Z,43.96
2018-06-28T16:40:54.391Z,43.48
2018-06-28T16:42:47.333Z,42.41
2018-06-28T16:43:47.354Z,42.02
2018-06-28T16:45:40.316Z,43.29
2018-06-28T16:46:40.489Z,43.09
2018-06-28T16:48:33.257Z,42.41
2018-06-28T16:49:33.279Z,42.50
2018-06-28T16:51:26.233Z,42.31
2018-06-28T16:52:26.303Z,42.41
2018-06-28T16:54:19.209Z,42.50
2018-06-28T16:55:19.204Z,41.73
2018-06-28T16:57:12.142Z,42.50
2018-06-28T16:58:12.168Z,42.39
2018-06-28T17:00:05.123Z,42.29
2018-06-28T17:01:05.116Z,42.58
2018-06-28T17:02:58.058Z,43.16
2018-06-28T17:03:58.078Z,42.29
2018-06-28T17:05:51.044Z,42.78
2018-06-28T17:06:51.057Z,43.46
2018-06-28T17:08:43.988Z,42.97
2018-06-28T17:09:44.008Z,43.26
2018-06-28T17:11:36.973Z,42.87
2018-06-28T17:12:36.994Z,43.26
2018-06-28T17:14:29.935Z,42.78
2018-06-28T17:15:29.935Z,42.78
2018-06-28T17:17:22.873Z,42.68
2018-06-28T17:18:22.892Z,42.39
2018-06-28T17:20:15.869Z,43.44
2018-06-28T17:21:15.861Z,42.95
2018-06-28T17:23:08.787Z,42.36
2018-06-28T17:24:08.810Z,43.05
2018-06-28T17:26:01.767Z,43.92
2018-06-28T17:27:01.838Z,44.02
2018-06-28T17:28:54.710Z,44.31
2018-06-28T17:29:54.727Z,43.63
2018-06-28T17:31:47.715Z,45.17
2018-06-28T17:32:47.758Z,45.26
2018-06-28T17:34:40.670Z,45.07
2018-06-28T17:35:40.652Z,45.65
2018-06-28T17:37:33.587Z,45.65
2018-06-28T17:38:33.608Z,45.94
2018-06-28T17:40:26.577Z,45.75
2018-06-28T17:41:26.566Z,46.52
2018-06-28T17:43:19.509Z,46.52
2018-06-28T17:44:19.522Z,46.33
2018-06-28T17:46:12.488Z,46.14
2018-06-28T17:47:12.483Z,46.81
2018-06-28T17:49:05.436Z,46.52
2018-06-28T17:50:05.441Z,46.81
2018-06-28T17:51:58.406Z,46.81
2018-06-28T17:52:58.407Z,46.72
2018-06-28T17:54:51.364Z,46.23
2018-06-28T17:55:51.357Z,45.75
2018-06-28T17:57:44.297Z,46.52
2018-06-28T17:58:44.316Z,46.23
2018-06-28T18:00:37.283Z,46.50
2018-06-28T18:01:37.284Z,46.79
2018-06-28T18:03:30.306Z,46.69
2018-06-28T18:04:30.247Z,47.47
2018-06-28T18:06:23.209Z,47.18
2018-06-28T18:07:23.205Z,47.16
2018-06-28T18:09:16.144Z,46.98
2018-06-28T18:10:16.159Z,47.47
2018-06-28T18:12:09.125Z,47.86
2018-06-28T18:13:09.123Z,47.47
2018-06-28T18:15:02.077Z,47.66
2018-06-28T18:16:02.080Z,48.54
2018-06-28T18:17:55.015Z,48.54
2018-06-28T18:18:55.035Z,47.66
2018-06-28T18:20:48.003Z,48.64
2018-06-28T18:21:47.990Z,48.13
2018-06-28T18:23:40.950Z,48.54
2018-06-28T18:24:40.948Z,48.71
2018-06-28T18:26:33.932Z,48.80
2018-06-28T18:27:33.902Z,48.52
2018-06-28T18:29:26.840Z,48.52
2018-06-28T18:30:26.863Z,48.52
2018-06-28T18:32:19.821Z,49.58
2018-06-28T18:33:19.814Z,49.49
2018-06-28T18:35:12.771Z,49.58
2018-06-28T18:36:12.781Z,49.68
2018-06-28T18:38:05.751Z,50.16
2018-06-28T18:39:05.725Z,49.58
2018-06-28T18:40:58.739Z,50.04
2018-06-28T18:41:58.708Z,49.85
2018-06-28T18:43:51.644Z,51.01
2018-06-28T18:44:51.670Z,51.01
2018-06-28T18:46:44.612Z,50.72
2018-06-28T18:47:44.611Z,50.62
2018-06-28T18:49:37.542Z,50.99
2018-06-28T18:50:37.641Z,51.28
2018-06-28T18:52:30.524Z,51.57
2018-06-28T18:53:30.520Z,51.37
2018-06-28T18:55:23.508Z,51.57
2018-06-28T18:56:23.496Z,51.96
2018-06-28T18:58:16.420Z,51.47
2018-06-28T18:59:16.443Z,51.67
2018-06-28T19:01:09.513Z,51.67
2018-06-28T19:02:09.455Z,51.67
2018-06-28T19:04:02.338Z,52.15
2018-06-28T19:05:02.354Z,52.54
2018-06-28T19:06:55.318Z,52.44
2018-06-28T19:07:55.310Z,52.64
2018-06-28T19:09:48.248Z,52.12
2018-06-28T19:10:48.263Z,52.61
2018-06-28T19:12:41.250Z,52.61
2018-06-28T19:13:41.221Z,52.71
2018-06-28T19:15:34.210Z,52.71
2018-06-28T19:16:34.179Z,52.80
2018-06-28T19:18:27.127Z,53.09
2018-06-28T19:19:27.143Z,53.09
2018-06-28T19:21:20.233Z,52.90
2018-06-28T19:22:20.102Z,53.85
2018-06-28T19:24:13.537Z,54.13
2018-06-28T19:25:13.561Z,54.03
2018-06-28T19:27:06.509Z,54.33
2018-06-28T19:28:06.508Z,54.43
2018-06-28T19:29:59.444Z,54.13
2018-06-28T19:30:59.463Z,54.43
2018-06-28T19:32:52.415Z,54.91
2018-06-28T19:33:52.417Z,54.13
2018-06-28T19:35:45.379Z,54.81
2018-06-28T19:36:45.382Z,54.81
2018-06-28T19:38:38.314Z,54.62
2018-06-28T19:39:38.357Z,54.52
2018-06-28T19:41:31.319Z,54.43
2018-06-28T19:42:31.289Z,54.71
2018-06-28T19:44:24.241Z,54.69
2018-06-28T19:45:24.246Z,55.00
2018-06-28T19:47:17.202Z,55.07
2018-06-28T19:48:17.202Z,55.49
2018-06-28T19:50:10.139Z,55.46
2018-06-28T19:51:10.173Z,55.66
2018-06-28T19:53:03.108Z,56.34
2018-06-28T19:54:03.130Z,56.04
2018-06-28T19:55:56.069Z,56.72
2018-06-28T19:56:56.067Z,55.85
2018-06-28T19:58:49.012Z,56.70
2018-06-28T19:59:49.018Z,57.08
2018-06-28T20:01:41.973Z,56.79
2018-06-28T20:02:41.972Z,57.46
2018-06-28T20:04:34.917Z,57.46
2018-06-28T20:05:34.928Z,57.46
2018-06-28T20:07:27.884Z,57.76
2018-06-28T20:08:27.886Z,57.86
2018-06-28T20:10:20.820Z,58.14
2018-06-28T20:11:20.837Z,57.95
2018-06-28T20:13:13.798Z,57.63
2018-06-28T20:14:13.791Z,58.21
2018-06-28T20:16:06.745Z,58.12
2018-06-28T20:17:06.744Z,58.60
2018-06-28T20:18:59.682Z,58.70
2018-06-28T20:19:59.698Z,58.98
2018-06-28T20:21:52.655Z,58.89
2018-06-28T20:22:52.652Z,59.28
2018-06-28T20:24:45.658Z,59.38
2018-06-28T20:25:45.605Z,59.63
2018-06-28T20:27:38.563Z,60.02
2018-06-28T20:28:38.561Z,59.63
2018-06-28T20:30:31.498Z,59.73
2018-06-28T20:31:31.517Z,60.02
2018-06-28T20:33:24.467Z,60.11
2018-06-28T20:34:24.465Z,60.41
2018-06-28T20:36:17.442Z,59.92
2018-06-28T20:37:17.438Z,60.31
2018-06-28T20:39:10.374Z,60.21
2018-06-28T20:40:10.388Z,60.50
2018-06-28T20:42:03.353Z,60.47
2018-06-28T20:43:03.351Z,60.60
2018-06-28T20:44:56.284Z,61.08
2018-06-28T20:45:56.297Z,60.99
2018-06-28T20:47:49.254Z,60.79
2018-06-28T20:48:49.252Z,60.96
2018-06-28T20:50:42.208Z,61.63
2018-06-28T20:51:42.212Z,60.96
2018-06-28T20:53:35.172Z,61.63
2018-06-28T20:54:35.170Z,61.54
2018-06-28T20:56:28.137Z,61.44